METAR Data
IDs: Format: Raw Decoded Include TAF

Data at: 1346 UTC 14 Dec 2019

KHKA 141253Z AUTO 15005KT 1/4SM FG VV002 03/02 A2976 RMK AO2 UPB11E20 SLP077 P0000 T00280017 $
KHKA 141210Z AUTO 16003KT 1/4SM FG OVC002 03/02 A2978 RMK AO2 T00280017 $
KHKA 141201Z AUTO 16003KT 1/2SM FG OVC002 03/02 A2977 RMK AO2 T00280017 $
KHKA 141153Z AUTO 16004KT 1SM BR OVC002 02/01 A2977 RMK AO2 SNB21E34 SLP082 P0001 60001 70001 I6005 T00220011 10022 20000 56011 $
KHKA 141143Z AUTO 20006KT 1SM BR OVC001 02/01 A2978 RMK AO2 SNB21E34 P0001 T00220011 $
KHKA 141101Z AUTO 20005KT 3/4SM BR OVC001 01/00 A2978 RMK AO2 P0001 T00110000 $
KHKA 141053Z AUTO 19005KT 1/4SM FG VV002 01/M01 A2978 RMK AO2 SNB26E46 SLP084 P0000 I1002 T00061006 $
KHKA 141021Z AUTO 19005KT 1/4SM FG OVC001 00/M01 A2978 RMK AO2 I1002 T00001006 $
KHKA 140953Z AUTO 16003KT 1/2SM FG VV002 00/M01 A2977 RMK AO2 SLP082 I1002 T00001011 $
KHKA 140853Z AUTO 23004KT 1/4SM FG VV002 00/M01 A2980 RMK AO2 SLP094 I1001 I3001 T00001011 55002 $
KHKA 140753Z AUTO 00000KT 1/4SM FG VV002 00/M01 A2979 RMK AO2 SLP089 T00001011 $
KHKA 140653Z AUTO 00000KT M1/4SM FG VV001 01/M01 A2980 RMK AO2 SLP093 T00061006 $
KHKA 140553Z AUTO 00000KT 1/4SM FG VV002 01/00 A2981 RMK AO2 SLP096 I6000 T00110000 10067 20006 400830006 58007 $
KHKA 140453Z AUTO 00000KT 1/4SM FG VV002 02/01 A2983 RMK AO2 SLP101 I1000 T00170006 $
KHKA 140353Z AUTO 00000KT 1/4SM FG VV002 02/01 A2984 RMK AO2 SLP104 T00220011 $
KHKA 140307Z AUTO 00000KT 1/4SM FG VV003 04/03 A2983 RMK AO2 T00390028 $
KHKA 140253Z AUTO 00000KT 1/4SM FG CLR 04/02 A2983 RMK AO2 SLP104 T00390022 58007 $
KHKA 140218Z AUTO 00000KT 1/4SM FG CLR 05/03 A2984 RMK AO2 T00500033 $
KHKA 140210Z AUTO 00000KT 1/2SM FG CLR 05/03 A2984 RMK AO2 T00500033 $
KHKA 140200Z AUTO 00000KT 1/4SM FG CLR 05/03 A2985 RMK AO2 T00500033 $
KHKA 140153Z AUTO 00000KT 1SM BR CLR 05/03 A2985 RMK AO2 SLP107 T00500033 $
KHKA 140143Z AUTO 00000KT 1 3/4SM BR CLR 05/03 A2984 RMK AO2 T00500033 $
KHKA 140053Z AUTO 00000KT 6SM BR BKN110 06/04 A2985 RMK AO2 SLP107 T00610044 $
KHKA 132353Z AUTO 04003KT 7SM SCT070 BKN110 07/04 A2986 RMK AO2 SLP111 60000 T00670044 10083 20067 55004 $
KHKA 132253Z AUTO 32003KT 10SM OVC070 08/04 A2985 RMK AO2 SLP110 T00780044 $
KHKA 132153Z AUTO 26003KT 10SM SCT022 OVC070 08/04 A2986 RMK AO2 SLP112 T00830044 $
KHKA 132115Z AUTO 24003KT 9SM OVC016 08/05 A2986 RMK AO2 T00830050 $
KHKA 132053Z AUTO 00000KT 8SM OVC012 08/05 A2987 RMK AO2 RAB1958E07 SLP115 P0000 60000 T00780050 56024 $
KHKA 132046Z AUTO 00000KT 8SM BKN010 OVC014 08/05 A2987 RMK AO2 RAB1958E07 CIG 007V013 P0000 T00780050 $
KHKA 131953Z AUTO 26004KT 7SM OVC008 08/05 A2987 RMK AO2 RAB08E17 SLP116 P0000 T00780050 $
KHKA 131853Z AUTO 22005KT 8SM OVC007 08/06 A2990 RMK AO2 CIG 004V010 SLP125 T00780056 $
KHKA 131839Z AUTO 20004KT 7SM OVC007 08/06 A2990 RMK AO2 CIG 003V010 T00780056 $
KHKA 131818Z AUTO 21004KT 3SM BR OVC004 07/06 A2992 RMK AO2 T00720056 $
KHKA 131810Z AUTO 22004KT 2 1/2SM BR OVC004 07/06 A2993 RMK AO2 T00720056 $
KHKA 131753Z AUTO 19005KT 1 1/2SM BR OVC004 07/06 A2994 RMK AO2 RAE18 SLP139 P0000 60000 T00720056 10072 20061 56024 $
KHKA 131738Z AUTO 20003KT 2SM BR OVC004 07/06 A2995 RMK AO2 RAE18 P0000 T00720056 $
KHKA 131730Z AUTO 21003KT 3SM BR OVC003 07/06 A2996 RMK AO2 RAE18 P0000 T00720056 $
KHKA 131717Z AUTO 00000KT 2SM -RA BR OVC003 07/06 A2996 RMK AO2 P0000 T00720061 $
KHKA 131600Z AUTO 00000KT 1/2SM FG OVC002 07/06 A3000 RMK AO2 T00720061 $
KHKA 131553Z AUTO 00000KT 1/4SM FG OVC002 07/06 A3001 RMK AO2 SLP163 T00720056 $
KHKA 131527Z AUTO 19003KT 1/4SM FG VV003 07/06 A3002 RMK AO2 T00670056 $
KHKA 131509Z AUTO 00000KT 1/2SM FG OVC003 07/05 A3002 RMK AO2 T00670050 $
KHKA 131453Z AUTO 00000KT 1 3/4SM BR OVC004 07/05 A3001 RMK AO2 SLP163 T00670050 58005 $
KHKA 131451Z AUTO 00000KT 2 1/2SM BR OVC004 07/05 A3001 RMK AO2 $
KHKA 131353Z AUTO 00000KT 9SM OVC006 07/04 A3002 RMK AO2 SLP166 T00670039 $
KHKA 131253Z AUTO 00000KT 10SM OVC008 06/03 A3003 RMK AO2 SLP170 T00610033 $
KHKA 131153Z AUTO 12003KT 10SM OVC009 06/03 A3003 RMK AO2 SLP169 T00560028 10061 20022 56018 $
KHKA 131110Z AUTO 00000KT 10SM OVC009 06/03 A3004 RMK AO2 T00560033 $
KHKA 131053Z AUTO 00000KT 10SM OVC010 06/03 A3005 RMK AO2 SLP175 T00610033 $
KHKA 130953Z AUTO 17005KT 10SM OVC010 06/03 A3005 RMK AO2 SLP177 T00560028 $
KHKA 130853Z AUTO 19005KT 10SM OVC013 05/02 A3008 RMK AO2 SLP186 T00500017 $
KHKA 130835Z AUTO 19005KT 10SM BKN014 04/01 A3008 RMK AO2 T00440011 $
KHKA 130753Z AUTO 18005KT 10SM CLR 04/01 A3009 RMK AO2 SLP191 T00390006 $
KHKA 130653Z AUTO 19004KT 10SM CLR 04/00 A3011 RMK AO2 SLP198 T00390000 $
KHKA 130553Z AUTO 19006KT 10SM CLR 04/M01 A3013 RMK AO2 SLP203 T00391006 10078 20017 401281006 56012 $
KHKA 130453Z AUTO 18006KT 10SM CLR 05/M01 A3013 RMK AO2 SLP205 T00501011 $
KHKA 130353Z AUTO 16007KT 10SM CLR 04/M02 A3014 RMK AO2 SLP208 T00441022 $
KHKA 130253Z AUTO 15004KT 10SM CLR 04/M02 A3016 RMK AO2 SLP215 T00391017 58008 $
KHKA 130153Z AUTO 18003KT 9SM CLR 04/M02 A3018 RMK AO2 SLP221 T00441017 $